Time;durP1;ratioP1;P1;durP2;ratioP2;P2;SDS_P1;SDS_P2;PMS_P1;PMS_P2;Temp;Humidity;BMP_temperature;BMP_pressure;BME280_temperature;BME280_humidity;BME280_pressure;Samples;Min_cycle;Max_cycle;Signal;HPM_P1;HPM_P2
2021/04/12 00:00:45;;;;;;;5.50;4.00;;;;;;;;;;3587715;40;20025;-56
2021/04/12 00:03:24;;;;;;;5.85;3.95;;;;;;;;;;3587272;40;20028;-54
2021/04/12 00:06:16;;;;;;;9.48;3.85;;;;;;;;;;3588343;40;20060;-57
2021/04/12 00:08:48;;;;;;;6.15;4.03;;;;;;;;;;3589755;39;20056;-55
2021/04/12 00:11:50;;;;;;;5.10;3.80;;;;;;;;;;3587652;40;20032;-55
2021/04/12 00:14:33;;;;;;;6.68;3.80;;;;;;;;;;3588442;40;20051;-56
2021/04/12 00:17:17;;;;;;;6.68;4.40;;;;;;;;;;3590892;39;20398;-52
2021/04/12 00:19:55;;;;;;;6.72;4.40;;;;;;;;;;3588134;40;20111;-56
2021/04/12 00:22:32;;;;;;;8.13;4.80;;;;;;;;;;3588321;40;20036;-55
2021/04/12 00:25:07;;;;;;;5.05;4.05;;;;;;;;;;3589466;40;20035;-55
2021/04/12 00:27:35;;;;;;;8.63;3.88;;;;;;;;;;3587506;40;20024;-54
2021/04/12 00:30:27;;;;;;;5.57;3.97;;;;;;;;;;3588552;40;20456;-56
2021/04/12 00:33:01;;;;;;;5.38;3.63;;;;;;;;;;3587883;40;20041;-55
2021/04/12 00:35:43;;;;;;;11.20;4.13;;;;;;;;;;3588300;40;20029;-54
2021/04/12 00:38:30;;;;;;;5.63;4.13;;;;;;;;;;3588400;40;20364;-56
2021/04/12 00:41:29;;;;;;;5.90;4.53;;;;;;;;;;3587788;40;20040;-55
2021/04/12 00:44:06;;;;;;;6.90;4.40;;;;;;;;;;3587444;39;20092;-55
2021/04/12 00:46:56;;;;;;;5.88;4.18;;;;;;;;;;3587959;39;20459;-53
2021/04/12 00:49:45;;;;;;;5.53;4.40;;;;;;;;;;3587500;39;20047;-55
2021/04/12 00:52:47;;;;;;;7.38;4.43;;;;;;;;;;3587394;39;20025;-56
2021/04/12 00:55:33;;;;;;;6.28;4.60;;;;;;;;;;3587550;40;20440;-53
2021/04/12 00:58:11;;;;;;;8.50;5.22;;;;;;;;;;3586782;40;20040;-55
2021/04/12 01:00:48;;;;;;;7.55;4.45;;;;;;;;;;3587477;39;20032;-54
2021/04/12 01:03:45;;;;;;;7.30;5.28;;;;;;;;;;3587164;40;20136;-57
2021/04/12 01:06:35;;;;;;;6.80;4.43;;;;;;;;;;3588289;40;20055;-54
2021/04/12 01:09:23;;;;;;;7.80;5.28;;;;;;;;;;3588847;40;20091;-56
2021/04/12 01:12:25;;;;;;;6.45;4.93;;;;;;;;;;3591071;39;20043;-57
2021/04/12 01:15:12;;;;;;;5.97;4.60;;;;;;;;;;3589363;40;20045;-55
2021/04/12 01:18:25;;;;;;;6.72;5.35;;;;;;;;;;3588727;40;20356;-55
2021/04/12 01:21:01;;;;;;;10.73;5.32;;;;;;;;;;3588531;40;20033;-55
2021/04/12 01:24:18;;;;;;;7.38;5.47;;;;;;;;;;3588292;40;20394;-56
2021/04/12 01:27:06;;;;;;;8.88;5.40;;;;;;;;;;3588697;40;20052;-55
2021/04/12 01:29:50;;;;;;;7.22;5.43;;;;;;;;;;3587969;40;20044;-56
2021/04/12 01:32:46;;;;;;;8.00;5.97;;;;;;;;;;3589173;40;20040;-56
2021/04/12 01:35:36;;;;;;;8.20;5.03;;;;;;;;;;3589028;40;20303;-54
2021/04/12 01:38:38;;;;;;;7.18;5.25;;;;;;;;;;3589391;40;20025;-54
2021/04/12 01:41:34;;;;;;;7.32;5.88;;;;;;;;;;3586370;40;20043;-54
2021/04/12 01:44:22;;;;;;;6.93;5.70;;;;;;;;;;3589189;40;20055;-54
2021/04/12 01:46:51;;;;;;;7.72;5.80;;;;;;;;;;3588314;40;20128;-55
2021/04/12 01:49:33;;;;;;;8.98;5.80;;;;;;;;;;3588224;39;20076;-56
2021/04/12 01:52:22;;;;;;;9.90;6.40;;;;;;;;;;3589581;40;20149;-56
2021/04/12 01:55:02;;;;;;;12.65;6.35;;;;;;;;;;3588702;40;20040;-57
2021/04/12 01:57:40;;;;;;;7.97;6.15;;;;;;;;;;3589533;40;20060;-55
2021/04/12 02:00:49;;;;;;;7.78;6.30;;;;;;;;;;3589209;40;20052;-55
2021/04/12 02:03:36;;;;;;;8.10;5.97;;;;;;;;;;3586215;40;20600;-57
2021/04/12 02:06:41;;;;;;;7.47;6.20;;;;;;;;;;3588761;40;20028;-55
2021/04/12 02:09:22;;;;;;;8.80;5.78;;;;;;;;;;3588711;40;20041;-57
2021/04/12 02:12:15;;;;;;;7.85;5.45;;;;;;;;;;3593759;39;20148;-56
2021/04/12 02:14:58;;;;;;;7.78;5.90;;;;;;;;;;3589828;39;20290;-56
2021/04/12 02:17:50;;;;;;;8.85;6.10;;;;;;;;;;3588525;40;20364;-54
2021/04/12 02:20:49;;;;;;;9.57;5.90;;;;;;;;;;3588469;40;20426;-57
2021/04/12 02:23:29;;;;;;;14.93;7.13;;;;;;;;;;3588639;40;20619;-55
2021/04/12 02:26:10;;;;;;;9.23;5.95;;;;;;;;;;3589109;39;20037;-56
2021/04/12 02:29:35;;;;;;;8.43;6.75;;;;;;;;;;3588472;40;20035;-55
2021/04/12 02:32:12;;;;;;;7.55;5.68;;;;;;;;;;3594514;40;20412;-57
2021/04/12 02:35:12;;;;;;;16.27;6.75;;;;;;;;;;3594503;40;20044;-57
2021/04/12 02:38:22;;;;;;;8.93;6.53;;;;;;;;;;3588546;40;20411;-54
2021/04/12 02:40:48;;;;;;;9.05;6.68;;;;;;;;;;3588596;40;20032;-57
2021/04/12 02:43:51;;;;;;;8.18;6.53;;;;;;;;;;3588633;40;20042;-56
2021/04/12 02:46:35;;;;;;;8.68;5.82;;;;;;;;;;3588373;40;20055;-56
2021/04/12 02:49:12;;;;;;;9.05;7.07;;;;;;;;;;3585734;39;20056;-55
2021/04/12 02:52:22;;;;;;;9.35;6.53;;;;;;;;;;3587336;40;20039;-56
2021/04/12 02:55:12;;;;;;;9.88;6.43;;;;;;;;;;3588041;40;20032;-55
2021/04/12 02:58:02;;;;;;;8.40;6.68;;;;;;;;;;3588146;40;20141;-56
2021/04/12 03:00:58;;;;;;;10.60;6.75;;;;;;;;;;3588564;39;20028;-55
2021/04/12 03:03:42;;;;;;;11.07;7.90;;;;;;;;;;3588682;40;20037;-56
2021/04/12 03:06:45;;;;;;;11.13;7.00;;;;;;;;;;3588148;40;20032;-54
2021/04/12 03:09:29;;;;;;;11.05;7.22;;;;;;;;;;3591416;39;20051;-57
2021/04/12 03:12:21;;;;;;;9.65;7.50;;;;;;;;;;3587647;40;20028;-55
2021/04/12 03:15:10;;;;;;;8.32;6.75;;;;;;;;;;3588589;40;20052;-55
2021/04/12 03:18:03;;;;;;;11.65;7.60;;;;;;;;;;3587471;40;20028;-57
2021/04/12 03:20:47;;;;;;;14.32;7.47;;;;;;;;;;3587590;40;20043;-54
2021/04/12 03:23:50;;;;;;;10.95;8.15;;;;;;;;;;3587374;40;20040;-56
2021/04/12 03:26:40;;;;;;;8.93;8.00;;;;;;;;;;3588515;40;20037;-56
2021/04/12 03:29:20;;;;;;;9.27;7.85;;;;;;;;;;3588026;40;20032;-53
2021/04/12 03:31:48;;;;;;;11.32;8.55;;;;;;;;;;3587115;40;20029;-55
2021/04/12 03:34:36;;;;;;;10.23;8.40;;;;;;;;;;3587046;40;20037;-56
2021/04/12 03:37:12;;;;;;;11.20;9.30;;;;;;;;;;3588038;40;20040;-56
2021/04/12 03:39:47;;;;;;;11.60;8.73;;;;;;;;;;3587941;39;20063;-53
2021/04/12 03:42:40;;;;;;;10.60;9.35;;;;;;;;;;3587412;40;20032;-57
2021/04/12 03:45:21;;;;;;;10.88;8.80;;;;;;;;;;3587920;40;20044;-55
2021/04/12 03:48:23;;;;;;;10.55;8.80;;;;;;;;;;3586952;40;20043;-56
2021/04/12 03:51:05;;;;;;;11.25;9.25;;;;;;;;;;3586921;40;20114;-55
2021/04/12 03:54:18;;;;;;;12.80;10.07;;;;;;;;;;3588048;40;20055;-56
2021/04/12 03:56:55;;;;;;;11.73;8.65;;;;;;;;;;3587239;40;20041;-55
2021/04/12 03:59:35;;;;;;;12.07;9.43;;;;;;;;;;3587702;39;20098;-56
2021/04/12 04:02:38;;;;;;;11.07;9.77;;;;;;;;;;3588119;39;20044;-53
2021/04/12 04:05:19;;;;;;;16.23;9.25;;;;;;;;;;3587167;40;20044;-54
2021/04/12 04:08:10;;;;;;;12.02;9.10;;;;;;;;;;3590797;39;20047;-54
2021/04/12 04:11:05;;;;;;;11.35;9.27;;;;;;;;;;3587111;39;20040;-55
2021/04/12 04:13:35;;;;;;;9.93;8.25;;;;;;;;;;3587630;39;20040;-54
2021/04/12 04:16:23;;;;;;;10.35;8.75;;;;;;;;;;3588705;40;20036;-55
2021/04/12 04:19:18;;;;;;;12.90;9.70;;;;;;;;;;3590422;39;20032;-54
2021/04/12 04:21:49;;;;;;;12.73;8.90;;;;;;;;;;3585812;40;20028;-56
2021/04/12 04:24:30;;;;;;;13.80;9.48;;;;;;;;;;3587997;40;20048;-53
2021/04/12 04:27:23;;;;;;;11.75;8.40;;;;;;;;;;3587450;40;20032;-54
2021/04/12 04:29:48;;;;;;;9.88;8.55;;;;;;;;;;3586531;39;20033;-54
2021/04/12 04:32:34;;;;;;;9.88;7.90;;;;;;;;;;3586763;40;20376;-53
2021/04/12 04:35:15;;;;;;;9.15;7.88;;;;;;;;;;3587681;39;20052;-54
2021/04/12 04:38:31;;;;;;;9.73;8.02;;;;;;;;;;3592112;40;20043;-56
2021/04/12 04:41:25;;;;;;;12.45;8.43;;;;;;;;;;3587539;40;20305;-54
2021/04/12 04:44:35;;;;;;;13.90;7.78;;;;;;;;;;3587288;40;20037;-53
2021/04/12 04:47:28;;;;;;;8.68;6.80;;;;;;;;;;3589859;40;20125;-53
2021/04/12 04:50:11;;;;;;;8.25;7.28;;;;;;;;;;3588367;40;20100;-56
2021/04/12 04:53:06;;;;;;;9.95;8.23;;;;;;;;;;3588410;40;20082;-54
2021/04/12 04:55:56;;;;;;;9.55;7.38;;;;;;;;;;3588706;40;20056;-54
2021/04/12 04:58:40;;;;;;;8.65;7.25;;;;;;;;;;3589079;40;20044;-56
2021/04/12 05:01:24;;;;;;;12.13;7.60;;;;;;;;;;3588442;40;20040;-54
2021/04/12 05:04:07;;;;;;;8.93;7.43;;;;;;;;;;3587212;40;20056;-54
2021/04/12 05:06:53;;;;;;;10.75;7.70;;;;;;;;;;3588777;40;20511;-54
2021/04/12 05:09:21;;;;;;;11.70;7.15;;;;;;;;;;3589626;40;20052;-55
2021/04/12 05:12:05;;;;;;;12.48;7.22;;;;;;;;;;3588065;40;20095;-54
2021/04/12 05:15:09;;;;;;;10.65;8.07;;;;;;;;;;3591717;39;20039;-55
2021/04/12 05:18:05;;;;;;;9.70;7.57;;;;;;;;;;3588483;40;20035;-54
2021/04/12 05:21:24;;;;;;;10.32;7.40;;;;;;;;;;3589202;40;20280;-54
2021/04/12 05:24:25;;;;;;;10.07;8.20;;;;;;;;;;3586161;40;20044;-54
2021/04/12 05:27:32;;;;;;;10.27;7.85;;;;;;;;;;3586505;40;20556;-57
2021/04/12 05:30:09;;;;;;;11.07;7.30;;;;;;;;;;3588777;40;20118;-56
2021/04/12 05:33:06;;;;;;;9.98;7.97;;;;;;;;;;3588232;39;20029;-51
2021/04/12 05:35:48;;;;;;;13.85;7.60;;;;;;;;;;3588409;40;20039;-52
2021/04/12 05:38:49;;;;;;;10.35;7.50;;;;;;;;;;3588786;40;20036;-55
2021/04/12 05:41:45;;;;;;;9.23;6.82;;;;;;;;;;3588896;40;20124;-54
2021/04/12 05:44:32;;;;;;;8.98;6.95;;;;;;;;;;3589110;40;20457;-56
2021/04/12 05:47:07;;;;;;;9.02;6.93;;;;;;;;;;3589025;40;20063;-53
2021/04/12 05:49:44;;;;;;;8.15;5.75;;;;;;;;;;3588405;40;20470;-56
2021/04/12 05:52:23;;;;;;;12.73;6.90;;;;;;;;;;3588254;40;20048;-52
2021/04/12 05:54:57;;;;;;;10.57;6.15;;;;;;;;;;3594566;40;20040;-56
2021/04/12 05:57:42;;;;;;;9.77;5.82;;;;;;;;;;3587521;39;20047;-56
2021/04/12 06:00:19;;;;;;;7.88;5.70;;;;;;;;;;3587260;40;20063;-55
2021/04/12 06:03:06;;;;;;;7.53;5.82;;;;;;;;;;3587540;40;20502;-56
2021/04/12 06:05:34;;;;;;;9.23;5.93;;;;;;;;;;3590350;39;20036;-56
2021/04/12 06:08:27;;;;;;;8.63;5.38;;;;;;;;;;3588785;40;20064;-54
2021/04/12 06:11:22;;;;;;;7.32;5.38;;;;;;;;;;3587610;40;20594;-54
2021/04/12 06:14:17;;;;;;;9.48;5.20;;;;;;;;;;3587267;39;20150;-55
2021/04/12 06:16:51;;;;;;;10.65;5.10;;;;;;;;;;3587922;39;20043;-55
2021/04/12 06:19:20;;;;;;;7.93;4.75;;;;;;;;;;3587890;40;20036;-56
2021/04/12 06:21:58;;;;;;;9.40;5.68;;;;;;;;;;3587403;40;20118;-55
2021/04/12 06:24:42;;;;;;;10.13;5.40;;;;;;;;;;3588151;40;20025;-56
2021/04/12 06:27:31;;;;;;;8.18;5.05;;;;;;;;;;3588931;39;20029;-56
2021/04/12 06:30:23;;;;;;;7.65;5.10;;;;;;;;;;3588325;40;20039;-51
2021/04/12 06:33:14;;;;;;;7.53;4.80;;;;;;;;;;3586630;40;20381;-56
2021/04/12 06:35:55;;;;;;;10.93;4.95;;;;;;;;;;3587942;39;20044;-55
2021/04/12 06:38:35;;;;;;;6.25;3.72;;;;;;;;;;3588472;39;20039;-54
2021/04/12 06:41:51;;;;;;;9.10;4.50;;;;;;;;;;3588536;39;20032;-56
2021/04/12 06:44:54;;;;;;;6.03;4.63;;;;;;;;;;3588099;40;20059;-52
2021/04/12 06:47:28;;;;;;;8.45;5.00;;;;;;;;;;3587724;40;20043;-56
2021/04/12 06:50:18;;;;;;;9.50;4.00;;;;;;;;;;3587621;40;20052;-54
2021/04/12 06:53:21;;;;;;;6.07;3.65;;;;;;;;;;3588121;40;20036;-54
2021/04/12 06:55:52;;;;;;;6.72;3.70;;;;;;;;;;3587804;39;20048;-56
2021/04/12 06:58:24;;;;;;;;;;;;;;;;;;3588297;40;20048;-54
2021/04/12 07:00:55;;;;;;;;;;;;;;;;;;3588959;40;19929;-56
2021/04/12 07:03:51;;;;;;;8.68;4.10;;;;;;;;;;3589110;40;19960;-56
2021/04/12 07:06:40;;;;;;;7.40;3.92;;;;;;;;;;3587372;39;20052;-54
2021/04/12 07:09:27;;;;;;;5.88;3.58;;;;;;;;;;3587238;40;20041;-53
2021/04/12 07:12:19;;;;;;;8.10;4.07;;;;;;;;;;3587157;40;20063;-56
2021/04/12 07:14:54;;;;;;;7.63;3.58;;;;;;;;;;3586585;40;20052;-57
2021/04/12 07:17:58;;;;;;;8.65;4.05;;;;;;;;;;3587458;40;20118;-57
2021/04/12 07:20:23;;;;;;;7.88;3.60;;;;;;;;;;3588041;40;20040;-54
2021/04/12 07:23:17;;;;;;;6.75;3.72;;;;;;;;;;3590263;39;20055;-57
2021/04/12 07:26:17;;;;;;;5.47;3.33;;;;;;;;;;3587697;39;20059;-56
2021/04/12 07:29:13;;;;;;;8.57;3.95;;;;;;;;;;3587382;40;20126;-52
2021/04/12 07:31:53;;;;;;;5.75;3.42;;;;;;;;;;3588095;40;20560;-55
2021/04/12 07:34:50;;;;;;;7.28;3.17;;;;;;;;;;3589220;39;20109;-55
2021/04/12 07:37:38;;;;;;;8.43;3.90;;;;;;;;;;3588215;40;20129;-55
2021/04/12 07:40:21;;;;;;;5.60;3.20;;;;;;;;;;3588195;40;20059;-52
2021/04/12 07:42:53;;;;;;;7.00;3.42;;;;;;;;;;3587170;40;20050;-53
2021/04/12 07:45:55;;;;;;;5.38;3.25;;;;;;;;;;3587165;40;20025;-56
2021/04/12 07:48:50;;;;;;;12.10;4.07;;;;;;;;;;3588068;40;20064;-56
2021/04/12 07:51:18;;;;;;;6.18;3.42;;;;;;;;;;3587624;40;20343;-54
2021/04/12 07:54:13;;;;;;;7.80;3.65;;;;;;;;;;3587055;40;21381;-52
2021/04/12 07:57:03;;;;;;;6.85;3.55;;;;;;;;;;3586913;40;20028;-57
2021/04/12 08:00:06;;;;;;;7.55;3.75;;;;;;;;;;3588197;40;20329;-53
2021/04/12 08:03:09;;;;;;;8.73;3.67;;;;;;;;;;3587455;39;20063;-54
2021/04/12 08:05:52;;;;;;;7.65;3.80;;;;;;;;;;3589451;39;20364;-57
2021/04/12 08:08:45;;;;;;;8.07;3.63;;;;;;;;;;3587813;40;20387;-56
2021/04/12 08:11:29;;;;;;;8.85;3.70;;;;;;;;;;3586537;40;20138;-57
2021/04/12 08:14:44;;;;;;;5.72;3.55;;;;;;;;;;3591528;39;20052;-53
2021/04/12 08:17:35;;;;;;;8.75;3.67;;;;;;;;;;3587012;40;20411;-56
2021/04/12 08:20:21;;;;;;;5.13;3.10;;;;;;;;;;3586670;40;20126;-57
2021/04/12 08:23:51;;;;;;;4.30;2.80;;;;;;;;;;3587080;40;20044;-57
2021/04/12 08:26:53;;;;;;;8.02;3.67;;;;;;;;;;3586925;40;20037;-52
2021/04/12 08:29:55;;;;;;;5.57;3.47;;;;;;;;;;3586661;39;20024;-57
2021/04/12 08:32:39;;;;;;;6.70;3.47;;;;;;;;;;3587807;39;20040;-55
2021/04/12 08:35:13;;;;;;;6.32;3.33;;;;;;;;;;3587668;39;20103;-54
2021/04/12 08:38:29;;;;;;;7.28;3.72;;;;;;;;;;3586718;39;20094;-50
2021/04/12 08:40:58;;;;;;;4.70;2.70;;;;;;;;;;3587390;39;20092;-56
2021/04/12 08:43:42;;;;;;;5.32;3.10;;;;;;;;;;3588196;39;20033;-56
2021/04/12 08:46:27;;;;;;;6.13;3.72;;;;;;;;;;3588892;39;20364;-55
2021/04/12 08:49:11;;;;;;;6.18;3.75;;;;;;;;;;3587556;39;20032;-52
2021/04/12 08:51:58;;;;;;;6.65;3.90;;;;;;;;;;3587646;39;20031;-52
2021/04/12 08:54:47;;;;;;;10.32;4.18;;;;;;;;;;3585758;39;20044;-54
2021/04/12 08:57:38;;;;;;;7.00;3.97;;;;;;;;;;3592032;40;20035;-54
2021/04/12 09:00:26;;;;;;;5.90;3.47;;;;;;;;;;3586872;40;20036;-53
2021/04/12 09:03:28;;;;;;;6.25;3.35;;;;;;;;;;3587403;39;20047;-55
2021/04/12 09:06:21;;;;;;;8.18;2.53;;;;;;;;;;3586652;39;20481;-55
2021/04/12 09:09:18;;;;;;;6.05;3.10;;;;;;;;;;3586673;40;20398;-54
2021/04/12 09:12:13;;;;;;;7.18;3.22;;;;;;;;;;3587130;40;20055;-57
2021/04/12 09:14:57;;;;;;;11.18;4.43;;;;;;;;;;3589376;39;20056;-52
2021/04/12 09:17:33;;;;;;;6.80;3.85;;;;;;;;;;3586482;40;20041;-55
2021/04/12 09:20:15;;;;;;;9.63;3.97;;;;;;;;;;3587095;40;20037;-56
2021/04/12 09:23:18;;;;;;;8.80;4.32;;;;;;;;;;3587070;40;20375;-55
2021/04/12 09:26:11;;;;;;;7.40;3.60;;;;;;;;;;3586497;40;20055;-56
2021/04/12 09:29:00;;;;;;;5.55;3.60;;;;;;;;;;3586521;40;20040;-54
2021/04/12 09:31:38;;;;;;;11.45;4.10;;;;;;;;;;3587612;40;20285;-55
2021/04/12 09:34:34;;;;;;;6.72;4.15;;;;;;;;;;3588484;39;20045;-54
2021/04/12 09:37:36;;;;;;;6.53;3.05;;;;;;;;;;3589336;40;20295;-54
2021/04/12 09:40:23;;;;;;;6.18;3.35;;;;;;;;;;3588240;40;20036;-54
2021/04/12 09:42:51;;;;;;;9.32;3.55;;;;;;;;;;3588337;40;20033;-53
2021/04/12 09:45:17;;;;;;;7.95;3.90;;;;;;;;;;3587993;40;20449;-55
2021/04/12 09:47:55;;;;;;;8.30;3.78;;;;;;;;;;3587939;40;20049;-53
2021/04/12 09:50:45;;;;;;;6.18;3.28;;;;;;;;;;3586912;40;20078;-54
2021/04/12 09:53:25;;;;;;;5.65;3.38;;;;;;;;;;3588823;39;20043;-53
2021/04/12 09:56:15;;;;;;;6.05;3.22;;;;;;;;;;3588743;39;20056;-55
2021/04/12 09:59:19;;;;;;;5.50;3.40;;;;;;;;;;3587985;40;20024;-55
2021/04/12 10:02:22;;;;;;;6.60;3.35;;;;;;;;;;3592750;39;20140;-53
2021/04/12 10:04:51;;;;;;;10.13;3.63;;;;;;;;;;3587862;40;20067;-52
2021/04/12 10:07:32;;;;;;;6.22;2.90;;;;;;;;;;3588085;39;20036;-55
2021/04/12 10:10:03;;;;;;;5.55;3.30;;;;;;;;;;3588468;39;20289;-52
2021/04/12 10:13:11;;;;;;;5.38;3.05;;;;;;;;;;3587800;40;20028;-54
2021/04/12 10:15:54;;;;;;;7.32;3.22;;;;;;;;;;3590868;39;20073;-53
2021/04/12 10:18:46;;;;;;;6.55;3.08;;;;;;;;;;3587908;39;20040;-53
2021/04/12 10:21:19;;;;;;;6.00;2.80;;;;;;;;;;3588361;40;20040;-52
2021/04/12 10:23:51;;;;;;;5.22;2.90;;;;;;;;;;3587927;40;20252;-51
2021/04/12 10:26:48;;;;;;;5.47;2.42;;;;;;;;;;3588313;40;20049;-49
2021/04/12 10:29:19;;;;;;;7.00;3.10;;;;;;;;;;3587911;40;20041;-53
2021/04/12 10:31:58;;;;;;;8.77;3.00;;;;;;;;;;3587041;39;20267;-52
2021/04/12 10:34:30;;;;;;;7.60;3.33;;;;;;;;;;3588188;39;20073;-52
2021/04/12 10:37:03;;;;;;;8.32;2.78;;;;;;;;;;3587777;40;20163;-53
2021/04/12 10:39:47;;;;;;;8.40;3.42;;;;;;;;;;3586649;39;20517;-52
2021/04/12 10:42:29;;;;;;;5.07;2.78;;;;;;;;;;3587028;39;20347;-50
2021/04/12 10:45:13;;;;;;;6.03;2.92;;;;;;;;;;3587699;39;20033;-55
2021/04/12 10:48:00;;;;;;;5.80;2.70;;;;;;;;;;3587640;39;20036;-52
2021/04/12 10:50:47;;;;;;;5.00;2.70;;;;;;;;;;3587675;39;20040;-52
2021/04/12 10:53:34;;;;;;;5.43;2.15;;;;;;;;;;3588689;39;20062;-54
2021/04/12 10:56:05;;;;;;;5.63;2.22;;;;;;;;;;3587673;39;20051;-53
2021/04/12 10:58:49;;;;;;;;;;;;;;;;;;3589685;39;20376;-52
2021/04/12 11:01:36;;;;;;;4.57;2.35;;;;;;;;;;3588601;39;20298;-51
2021/04/12 11:04:07;;;;;;;3.55;1.90;;;;;;;;;;3589428;39;20075;-55
2021/04/12 11:07:13;;;;;;;4.15;2.25;;;;;;;;;;3586918;39;20044;-54
2021/04/12 11:09:48;;;;;;;4.25;1.73;;;;;;;;;;3587777;39;20045;-53
2021/04/12 11:12:22;;;;;;;6.22;2.35;;;;;;;;;;3588521;39;20035;-55
2021/04/12 11:15:01;;;;;;;5.75;2.30;;;;;;;;;;3587987;39;20040;-56
2021/04/12 11:17:45;;;;;;;3.65;2.03;;;;;;;;;;3588914;39;20047;-55
2021/04/12 11:20:22;;;;;;;4.00;2.08;;;;;;;;;;3590829;39;20048;-53
2021/04/12 11:23:16;;;;;;;3.65;1.98;;;;;;;;;;3590435;39;21793;-55
2021/04/12 11:25:54;;;;;;;3.70;1.45;;;;;;;;;;3588123;39;20356;-53
2021/04/12 11:28:58;;;;;;;4.32;2.00;;;;;;;;;;3587461;39;20040;-54
2021/04/12 11:32:15;;;;;;;3.47;1.88;;;;;;;;;;3587272;39;20045;-51
2021/04/12 11:34:46;;;;;;;5.45;2.50;;;;;;;;;;3551907;40;20049;-53
2021/04/12 11:37:27;;;;;;;5.15;1.90;;;;;;;;;;3550802;40;20042;-55
2021/04/12 11:39:57;;;;;;;4.90;2.08;;;;;;;;;;3577374;40;20032;-55
2021/04/12 11:42:29;;;;;;;4.03;1.52;;;;;;;;;;3586682;40;20048;-52
2021/04/12 11:45:17;;;;;;;3.53;1.55;;;;;;;;;;3587532;40;20072;-55
2021/04/12 11:48:05;;;;;;;4.38;1.38;;;;;;;;;;3587528;40;20372;-53
2021/04/12 11:50:38;;;;;;;2.90;1.40;;;;;;;;;;3588477;40;20325;-51
2021/04/12 11:53:35;;;;;;;3.30;1.55;;;;;;;;;;3591801;39;20130;-53
2021/04/12 11:56:31;;;;;;;3.70;1.80;;;;;;;;;;3587866;40;20044;-53
2021/04/12 11:58:56;;;;;;;3.75;1.58;;;;;;;;;;3587945;40;20049;-53
2021/04/12 12:01:41;;;;;;;4.47;1.60;;;;;;;;;;3588574;39;20040;-53
2021/04/12 12:04:19;;;;;;;3.38;1.17;;;;;;;;;;3587427;39;20044;-53
2021/04/12 12:07:00;;;;;;;3.85;1.30;;;;;;;;;;3587331;39;20047;-54
2021/04/12 12:09:49;;;;;;;4.82;1.80;;;;;;;;;;3587083;39;20036;-53
2021/04/12 12:12:27;;;;;;;3.72;1.50;;;;;;;;;;3587375;40;20298;-51
2021/04/12 12:15:05;;;;;;;4.55;1.50;;;;;;;;;;3590195;39;20036;-52
2021/04/12 12:17:45;;;;;;;5.60;1.75;;;;;;;;;;3588326;40;20041;-51
2021/04/12 12:20:17;;;;;;;4.45;1.75;;;;;;;;;;3587634;39;20032;-53
2021/04/12 12:22:49;;;;;;;7.75;1.65;;;;;;;;;;3588532;40;20118;-54
2021/04/12 12:25:37;;;;;;;3.03;1.40;;;;;;;;;;3587914;40;20040;-53
2021/04/12 12:28:08;;;;;;;3.67;1.50;;;;;;;;;;3587402;40;20033;-54
2021/04/12 12:30:57;;;;;;;3.70;1.52;;;;;;;;;;3588654;39;20025;-54
2021/04/12 12:33:51;;;;;;;3.88;1.60;;;;;;;;;;3586956;40;20036;-56
2021/04/12 12:36:46;;;;;;;7.43;1.60;;;;;;;;;;3587060;40;20059;-55
2021/04/12 12:39:30;;;;;;;4.22;1.52;;;;;;;;;;3586834;40;20024;-54
2021/04/12 12:42:01;;;;;;;3.35;1.33;;;;;;;;;;3587581;39;20032;-52
2021/04/12 12:44:29;;;;;;;3.15;1.10;;;;;;;;;;3586924;40;20029;-53
2021/04/12 12:46:54;;;;;;;2.17;1.10;;;;;;;;;;3586438;40;20412;-55
2021/04/12 12:49:31;;;;;;;4.90;1.45;;;;;;;;;;3586080;40;20353;-52
2021/04/12 12:52:08;;;;;;;2.92;1.10;;;;;;;;;;3587307;40;20418;-55
2021/04/12 12:54:48;;;;;;;16.20;1.42;;;;;;;;;;3586653;40;20060;-53
2021/04/12 12:57:17;;;;;;;3.15;1.20;;;;;;;;;;3586597;40;20613;-55
2021/04/12 12:59:56;;;;;;;2.58;1.00;;;;;;;;;;3586100;40;20047;-55
2021/04/12 13:02:25;;;;;;;2.75;1.20;;;;;;;;;;3586849;39;20040;-55
2021/04/12 13:05:28;;;;;;;3.55;1.20;;;;;;;;;;3587423;39;20216;-54
2021/04/12 13:08:09;;;;;;;2.03;1.00;;;;;;;;;;3588930;39;20049;-54
2021/04/12 13:10:45;;;;;;;;;;;;;;;;;;3589502;39;20025;-51
2021/04/12 13:13:30;;;;;;;2.28;1.00;;;;;;;;;;3588796;39;19982;-54
2021/04/12 13:16:10;;;;;;;3.70;1.25;;;;;;;;;;3587836;40;20051;-56
2021/04/12 13:18:37;;;;;;;3.13;1.40;;;;;;;;;;3588218;39;20057;-54
2021/04/12 13:21:08;;;;;;;2.85;1.20;;;;;;;;;;3591373;39;20090;-54
2021/04/12 13:23:36;;;;;;;4.20;1.40;;;;;;;;;;3588333;40;20041;-56
2021/04/12 13:26:17;;;;;;;2.30;1.10;;;;;;;;;;3589511;40;20036;-51
2021/04/12 13:28:44;;;;;;;3.75;1.58;;;;;;;;;;3587914;40;20465;-50
2021/04/12 13:31:15;;;;;;;2.45;1.17;;;;;;;;;;3588313;39;20033;-56
2021/04/12 13:33:52;;;;;;;4.40;1.38;;;;;;;;;;3588379;39;20108;-53
2021/04/12 13:36:21;;;;;;;4.32;1.30;;;;;;;;;;3588709;39;20352;-55
2021/04/12 13:38:51;;;;;;;2.50;1.15;;;;;;;;;;3587981;40;20088;-56
2021/04/12 13:41:22;;;;;;;4.25;1.27;;;;;;;;;;3588023;40;20063;-50
2021/04/12 13:43:56;;;;;;;3.78;1.23;;;;;;;;;;3589625;40;20048;-55
2021/04/12 13:46:27;;;;;;;2.35;1.20;;;;;;;;;;3589909;40;20070;-56
2021/04/12 13:49:11;;;;;;;2.40;0.97;;;;;;;;;;3591410;39;20040;-52
2021/04/12 13:51:51;;;;;;;2.72;1.50;;;;;;;;;;3591011;39;20326;-51
2021/04/12 13:54:49;;;;;;;3.50;1.10;;;;;;;;;;3593654;39;20076;-54
2021/04/12 13:57:34;;;;;;;2.00;0.90;;;;;;;;;;3590473;39;20033;-53
2021/04/12 14:00:16;;;;;;;3.60;1.02;;;;;;;;;;3590685;39;20378;-55
2021/04/12 14:02:52;;;;;;;3.67;1.13;;;;;;;;;;3591757;39;20271;-56
2021/04/12 14:05:23;;;;;;;2.55;1.23;;;;;;;;;;3590717;39;20029;-53
2021/04/12 14:08:22;;;;;;;2.88;1.30;;;;;;;;;;3589594;40;20283;-51
2021/04/12 14:10:53;;;;;;;3.70;1.23;;;;;;;;;;3590601;40;20101;-54
2021/04/12 14:13:50;;;;;;;3.45;1.20;;;;;;;;;;3591328;40;20055;-52
2021/04/12 14:16:22;;;;;;;2.85;1.13;;;;;;;;;;3588881;40;20536;-53
2021/04/12 14:19:02;;;;;;;2.90;0.90;;;;;;;;;;3591194;40;20049;-54
2021/04/12 14:21:41;;;;;;;3.75;1.30;;;;;;;;;;3590138;39;20050;-54
2021/04/12 14:24:21;;;;;;;1.92;0.88;;;;;;;;;;3591625;39;20390;-53
2021/04/12 14:26:52;;;;;;;2.60;1.33;;;;;;;;;;3591089;39;20387;-54
2021/04/12 14:29:31;;;;;;;3.67;1.40;;;;;;;;;;3589351;40;20174;-53
2021/04/12 14:32:13;;;;;;;5.00;1.40;;;;;;;;;;3592408;39;20662;-55
2021/04/12 14:34:43;;;;;;;2.10;1.00;;;;;;;;;;3590980;40;21217;-52
2021/04/12 14:37:14;;;;;;;1.63;0.88;;;;;;;;;;3589294;39;20028;-53
2021/04/12 14:39:40;;;;;;;1.63;0.90;;;;;;;;;;3590698;40;20036;-55
2021/04/12 14:42:15;;;;;;;2.28;1.00;;;;;;;;;;3591008;39;20057;-50
2021/04/12 14:44:46;;;;;;;1.42;0.80;;;;;;;;;;3589245;40;20085;-55
2021/04/12 14:47:14;;;;;;;;;;;;;;;;;;3590212;40;20449;-55
2021/04/12 14:49:50;;;;;;;1.67;0.80;;;;;;;;;;3590618;40;20243;-52
2021/04/12 14:52:46;;;;;;;2.88;1.20;;;;;;;;;;3590823;40;20130;-53
2021/04/12 14:55:36;;;;;;;3.47;1.20;;;;;;;;;;3592146;40;20056;-54
2021/04/12 14:58:18;;;;;;;1.52;0.73;;;;;;;;;;3589447;40;20133;-52
2021/04/12 15:00:52;;;;;;;;;;;;;;;;;;3592021;39;20047;-53
2021/04/12 15:03:23;;;;;;;2.75;1.23;;;;;;;;;;3593268;40;20005;-54
2021/04/12 15:05:55;;;;;;;;;;;;;;;;;;3587782;40;20047;-52
2021/04/12 15:08:31;;;;;;;7.15;3.60;;;;;;;;;;3590161;40;20262;-54
2021/04/12 15:11:21;;;;;;;3.40;1.65;;;;;;;;;;3590951;39;20036;-49
2021/04/12 15:14:09;;;;;;;5.00;2.70;;;;;;;;;;3589575;40;20048;-55
2021/04/12 15:17:06;;;;;;;2.75;1.35;;;;;;;;;;3593011;39;20040;-51
2021/04/12 15:19:41;;;;;;;2.47;1.30;;;;;;;;;;3588019;40;20051;-54
2021/04/12 15:22:15;;;;;;;2.28;1.17;;;;;;;;;;3588719;39;20046;-55
2021/04/12 15:24:44;;;;;;;2.65;1.02;;;;;;;;;;3592732;40;20479;-54
2021/04/12 15:27:18;;;;;;;2.70;1.30;;;;;;;;;;3589363;40;20089;-55
2021/04/12 15:29:55;;;;;;;2.67;1.23;;;;;;;;;;3590333;40;20044;-50
2021/04/12 15:32:29;;;;;;;2.97;1.33;;;;;;;;;;3592308;39;20028;-51
2021/04/12 15:35:02;;;;;;;2.92;1.30;;;;;;;;;;3587897;40;20073;-50
2021/04/12 15:37:42;;;;;;;3.15;1.33;;;;;;;;;;3590730;39;20090;-51
2021/04/12 15:40:15;;;;;;;4.47;1.50;;;;;;;;;;3592111;40;20049;-54
2021/04/12 15:42:49;;;;;;;3.35;1.85;;;;;;;;;;3588829;40;20125;-50
2021/04/12 15:45:38;;;;;;;2.63;1.30;;;;;;;;;;3590937;40;20027;-52
2021/04/12 15:48:13;;;;;;;6.72;3.70;;;;;;;;;;3590465;40;20044;-52
2021/04/12 15:50:43;;;;;;;3.33;1.60;;;;;;;;;;3590077;40;20062;-54
2021/04/12 15:53:18;;;;;;;4.17;1.80;;;;;;;;;;3592371;40;20055;-54
2021/04/12 15:56:10;;;;;;;3.38;1.38;;;;;;;;;;3590210;40;20275;-52
2021/04/12 15:59:01;;;;;;;3.58;1.40;;;;;;;;;;3591676;39;20048;-52
2021/04/12 16:02:01;;;;;;;4.22;2.30;;;;;;;;;;3592447;39;20062;-52
2021/04/12 16:04:33;;;;;;;4.35;2.15;;;;;;;;;;3594845;39;20070;-55
2021/04/12 16:07:13;;;;;;;5.85;3.92;;;;;;;;;;3592193;39;20032;-54
2021/04/12 16:09:46;;;;;;;7.35;4.18;;;;;;;;;;3589595;39;20067;-53
2021/04/12 16:12:16;;;;;;;4.85;2.95;;;;;;;;;;3590565;40;20374;-51
2021/04/12 16:14:48;;;;;;;4.90;2.88;;;;;;;;;;3591685;39;20048;-52
2021/04/12 16:17:28;;;;;;;4.88;2.55;;;;;;;;;;3593113;39;20040;-52
2021/04/12 16:20:08;;;;;;;4.10;2.40;;;;;;;;;;3592021;39;20138;-53
2021/04/12 16:22:38;;;;;;;4.20;2.40;;;;;;;;;;3591685;39;20064;-51
2021/04/12 16:25:15;;;;;;;5.38;2.30;;;;;;;;;;3589783;40;20110;-52
2021/04/12 16:27:43;;;;;;;2.90;1.45;;;;;;;;;;3589349;40;20200;-51